sensor_id;sensor_type;location;lat;lon;timestamp;P1;durP1;ratioP1;P2;durP2;ratioP2
19016;SDS011;9641;51.494;6.670;2024-03-06T00:00:01;35.93;;;19.27;;
19016;SDS011;9641;51.494;6.670;2024-03-06T00:02:29;32.80;;;17.87;;
19016;SDS011;9641;51.494;6.670;2024-03-06T00:04:58;29.17;;;16.93;;
19016;SDS011;9641;51.494;6.670;2024-03-06T00:07:24;33.63;;;18.17;;
19016;SDS011;9641;51.494;6.670;2024-03-06T00:09:51;30.87;;;16.20;;
19016;SDS011;9641;51.494;6.670;2024-03-06T00:12:19;35.60;;;18.57;;
19016;SDS011;9641;51.494;6.670;2024-03-06T00:14:46;39.43;;;17.57;;
19016;SDS011;9641;51.494;6.670;2024-03-06T00:17:13;28.73;;;15.30;;
19016;SDS011;9641;51.494;6.670;2024-03-06T00:19:40;30.77;;;16.00;;
19016;SDS011;9641;51.494;6.670;2024-03-06T00:22:09;34.10;;;16.93;;
19016;SDS011;9641;51.494;6.670;2024-03-06T00:24:36;31.07;;;17.07;;
19016;SDS011;9641;51.494;6.670;2024-03-06T00:27:03;33.10;;;17.37;;
19016;SDS011;9641;51.494;6.670;2024-03-06T00:29:31;29.73;;;17.20;;
19016;SDS011;9641;51.494;6.670;2024-03-06T00:31:58;31.93;;;16.43;;
19016;SDS011;9641;51.494;6.670;2024-03-06T00:34:25;28.10;;;17.47;;
19016;SDS011;9641;51.494;6.670;2024-03-06T00:36:52;28.10;;;15.90;;
19016;SDS011;9641;51.494;6.670;2024-03-06T00:39:22;34.50;;;18.47;;
19016;SDS011;9641;51.494;6.670;2024-03-06T00:41:49;32.47;;;16.53;;
19016;SDS011;9641;51.494;6.670;2024-03-06T00:44:16;29.07;;;16.97;;
19016;SDS011;9641;51.494;6.670;2024-03-06T00:46:43;30.63;;;17.80;;
19016;SDS011;9641;51.494;6.670;2024-03-06T00:49:10;31.47;;;17.13;;
19016;SDS011;9641;51.494;6.670;2024-03-06T00:51:37;31.37;;;17.10;;
19016;SDS011;9641;51.494;6.670;2024-03-06T00:54:04;35.30;;;17.57;;
19016;SDS011;9641;51.494;6.670;2024-03-06T00:56:32;33.60;;;18.57;;
19016;SDS011;9641;51.494;6.670;2024-03-06T00:59:03;35.47;;;18.37;;
19016;SDS011;9641;51.494;6.670;2024-03-06T01:01:30;33.87;;;17.73;;
19016;SDS011;9641;51.494;6.670;2024-03-06T01:03:57;34.23;;;17.63;;
19016;SDS011;9641;51.494;6.670;2024-03-06T01:06:24;36.73;;;19.20;;
19016;SDS011;9641;51.494;6.670;2024-03-06T01:08:51;35.57;;;19.50;;
19016;SDS011;9641;51.494;6.670;2024-03-06T01:11:19;39.40;;;20.30;;
19016;SDS011;9641;51.494;6.670;2024-03-06T01:13:48;34.40;;;19.23;;
19016;SDS011;9641;51.494;6.670;2024-03-06T01:16:15;40.30;;;19.23;;
19016;SDS011;9641;51.494;6.670;2024-03-06T01:18:42;37.37;;;19.27;;
19016;SDS011;9641;51.494;6.670;2024-03-06T01:21:09;35.27;;;19.03;;
19016;SDS011;9641;51.494;6.670;2024-03-06T01:23:36;36.27;;;19.13;;
19016;SDS011;9641;51.494;6.670;2024-03-06T01:26:03;34.67;;;18.33;;
19016;SDS011;9641;51.494;6.670;2024-03-06T01:28:30;31.40;;;17.97;;
19016;SDS011;9641;51.494;6.670;2024-03-06T01:30:58;36.33;;;19.30;;
19016;SDS011;9641;51.494;6.670;2024-03-06T01:33:25;38.40;;;19.47;;
19016;SDS011;9641;51.494;6.670;2024-03-06T01:35:52;32.40;;;18.90;;
19016;SDS011;9641;51.494;6.670;2024-03-06T01:38:19;33.67;;;19.10;;
19016;SDS011;9641;51.494;6.670;2024-03-06T01:40:46;34.77;;;18.50;;
19016;SDS011;9641;51.494;6.670;2024-03-06T01:43:20;37.70;;;18.80;;
19016;SDS011;9641;51.494;6.670;2024-03-06T01:45:47;36.47;;;18.47;;
19016;SDS011;9641;51.494;6.670;2024-03-06T01:48:17;36.87;;;18.23;;
19016;SDS011;9641;51.494;6.670;2024-03-06T01:50:45;36.80;;;18.53;;
19016;SDS011;9641;51.494;6.670;2024-03-06T01:53:13;35.17;;;19.97;;
19016;SDS011;9641;51.494;6.670;2024-03-06T01:55:42;35.40;;;18.70;;
19016;SDS011;9641;51.494;6.670;2024-03-06T01:58:09;34.23;;;18.40;;
19016;SDS011;9641;51.494;6.670;2024-03-06T02:00:37;32.47;;;18.53;;
19016;SDS011;9641;51.494;6.670;2024-03-06T02:03:04;33.90;;;18.67;;
19016;SDS011;9641;51.494;6.670;2024-03-06T02:05:33;40.30;;;19.53;;
19016;SDS011;9641;51.494;6.670;2024-03-06T02:08:01;34.20;;;19.03;;
19016;SDS011;9641;51.494;6.670;2024-03-06T02:10:33;47.00;;;22.07;;
19016;SDS011;9641;51.494;6.670;2024-03-06T02:13:00;40.60;;;20.43;;
19016;SDS011;9641;51.494;6.670;2024-03-06T02:15:27;47.83;;;22.77;;
19016;SDS011;9641;51.494;6.670;2024-03-06T02:17:54;45.20;;;22.37;;
19016;SDS011;9641;51.494;6.670;2024-03-06T02:20:25;47.50;;;22.53;;
19016;SDS011;9641;51.494;6.670;2024-03-06T02:22:52;42.80;;;21.73;;
19016;SDS011;9641;51.494;6.670;2024-03-06T02:25:19;41.37;;;20.87;;
19016;SDS011;9641;51.494;6.670;2024-03-06T02:27:47;44.43;;;21.57;;
19016;SDS011;9641;51.494;6.670;2024-03-06T02:30:14;48.53;;;22.10;;
19016;SDS011;9641;51.494;6.670;2024-03-06T02:32:45;38.93;;;19.80;;
19016;SDS011;9641;51.494;6.670;2024-03-06T02:35:12;38.97;;;19.97;;
19016;SDS011;9641;51.494;6.670;2024-03-06T02:37:42;38.47;;;21.33;;
19016;SDS011;9641;51.494;6.670;2024-03-06T02:40:10;45.07;;;22.83;;
19016;SDS011;9641;51.494;6.670;2024-03-06T02:42:37;44.80;;;22.80;;
19016;SDS011;9641;51.494;6.670;2024-03-06T02:45:05;47.00;;;22.20;;
19016;SDS011;9641;51.494;6.670;2024-03-06T02:47:34;41.37;;;21.87;;
19016;SDS011;9641;51.494;6.670;2024-03-06T02:50:01;41.63;;;20.80;;
19016;SDS011;9641;51.494;6.670;2024-03-06T02:52:30;43.97;;;19.83;;
19016;SDS011;9641;51.494;6.670;2024-03-06T02:54:59;37.23;;;20.07;;
19016;SDS011;9641;51.494;6.670;2024-03-06T02:57:27;41.23;;;20.70;;
19016;SDS011;9641;51.494;6.670;2024-03-06T02:59:55;39.20;;;20.73;;
19016;SDS011;9641;51.494;6.670;2024-03-06T03:02:22;43.87;;;21.17;;
19016;SDS011;9641;51.494;6.670;2024-03-06T03:04:50;43.00;;;21.63;;
19016;SDS011;9641;51.494;6.670;2024-03-06T03:07:17;36.93;;;20.07;;
19016;SDS011;9641;51.494;6.670;2024-03-06T03:09:44;37.20;;;19.90;;
19016;SDS011;9641;51.494;6.670;2024-03-06T03:12:13;37.00;;;18.83;;
19016;SDS011;9641;51.494;6.670;2024-03-06T03:14:40;45.37;;;21.40;;
19016;SDS011;9641;51.494;6.670;2024-03-06T03:17:08;43.50;;;19.70;;
19016;SDS011;9641;51.494;6.670;2024-03-06T03:19:35;42.90;;;22.10;;
19016;SDS011;9641;51.494;6.670;2024-03-06T03:22:09;41.90;;;19.90;;
19016;SDS011;9641;51.494;6.670;2024-03-06T03:24:38;43.60;;;20.70;;
19016;SDS011;9641;51.494;6.670;2024-03-06T03:27:07;40.73;;;20.23;;
19016;SDS011;9641;51.494;6.670;2024-03-06T03:29:36;43.60;;;21.77;;
19016;SDS011;9641;51.494;6.670;2024-03-06T03:32:03;37.50;;;19.50;;
19016;SDS011;9641;51.494;6.670;2024-03-06T03:34:30;39.47;;;20.70;;
19016;SDS011;9641;51.494;6.670;2024-03-06T03:36:59;42.20;;;20.00;;
19016;SDS011;9641;51.494;6.670;2024-03-06T03:39:26;36.47;;;19.60;;
19016;SDS011;9641;51.494;6.670;2024-03-06T03:41:53;42.23;;;20.67;;
19016;SDS011;9641;51.494;6.670;2024-03-06T03:44:20;36.77;;;19.33;;
19016;SDS011;9641;51.494;6.670;2024-03-06T03:46:49;40.60;;;20.50;;
19016;SDS011;9641;51.494;6.670;2024-03-06T03:49:16;43.83;;;21.23;;
19016;SDS011;9641;51.494;6.670;2024-03-06T03:51:47;39.90;;;21.27;;
19016;SDS011;9641;51.494;6.670;2024-03-06T03:54:17;42.13;;;21.20;;
19016;SDS011;9641;51.494;6.670;2024-03-06T03:56:44;45.37;;;21.73;;
19016;SDS011;9641;51.494;6.670;2024-03-06T03:59:11;55.73;;;24.47;;
19016;SDS011;9641;51.494;6.670;2024-03-06T04:01:38;50.07;;;22.90;;
19016;SDS011;9641;51.494;6.670;2024-03-06T04:04:07;46.17;;;23.13;;
19016;SDS011;9641;51.494;6.670;2024-03-06T04:06:34;47.90;;;22.87;;
19016;SDS011;9641;51.494;6.670;2024-03-06T04:09:01;49.70;;;23.60;;
19016;SDS011;9641;51.494;6.670;2024-03-06T04:11:29;50.97;;;23.53;;
19016;SDS011;9641;51.494;6.670;2024-03-06T04:13:58;45.53;;;22.03;;
19016;SDS011;9641;51.494;6.670;2024-03-06T04:16:28;46.83;;;22.30;;
19016;SDS011;9641;51.494;6.670;2024-03-06T04:18:56;51.17;;;22.93;;
19016;SDS011;9641;51.494;6.670;2024-03-06T04:21:27;43.70;;;21.80;;
19016;SDS011;9641;51.494;6.670;2024-03-06T04:23:55;49.50;;;22.87;;
19016;SDS011;9641;51.494;6.670;2024-03-06T04:26:24;47.83;;;23.00;;
19016;SDS011;9641;51.494;6.670;2024-03-06T04:28:52;46.00;;;22.70;;
19016;SDS011;9641;51.494;6.670;2024-03-06T04:31:19;50.87;;;22.53;;
19016;SDS011;9641;51.494;6.670;2024-03-06T04:33:48;59.00;;;24.07;;
19016;SDS011;9641;51.494;6.670;2024-03-06T04:36:15;57.67;;;24.50;;
19016;SDS011;9641;51.494;6.670;2024-03-06T04:38:44;55.80;;;25.03;;
19016;SDS011;9641;51.494;6.670;2024-03-06T04:41:11;67.97;;;25.73;;
19016;SDS011;9641;51.494;6.670;2024-03-06T04:43:38;64.40;;;26.33;;
19016;SDS011;9641;51.494;6.670;2024-03-06T04:46:05;70.57;;;28.17;;
19016;SDS011;9641;51.494;6.670;2024-03-06T04:48:32;72.30;;;28.57;;
19016;SDS011;9641;51.494;6.670;2024-03-06T04:50:59;64.63;;;27.50;;
19016;SDS011;9641;51.494;6.670;2024-03-06T04:53:27;62.43;;;26.20;;
19016;SDS011;9641;51.494;6.670;2024-03-06T04:55:55;63.47;;;26.13;;
19016;SDS011;9641;51.494;6.670;2024-03-06T04:58:22;58.47;;;25.97;;
19016;SDS011;9641;51.494;6.670;2024-03-06T05:00:51;54.20;;;23.67;;
19016;SDS011;9641;51.494;6.670;2024-03-06T05:03:18;59.37;;;23.97;;
19016;SDS011;9641;51.494;6.670;2024-03-06T05:05:45;56.30;;;22.57;;
19016;SDS011;9641;51.494;6.670;2024-03-06T05:08:12;52.97;;;23.80;;
19016;SDS011;9641;51.494;6.670;2024-03-06T05:10:39;51.23;;;23.23;;
19016;SDS011;9641;51.494;6.670;2024-03-06T05:13:08;52.03;;;24.20;;
19016;SDS011;9641;51.494;6.670;2024-03-06T05:15:35;49.93;;;23.90;;
19016;SDS011;9641;51.494;6.670;2024-03-06T05:18:02;52.27;;;24.47;;
19016;SDS011;9641;51.494;6.670;2024-03-06T05:20:29;50.37;;;23.73;;
19016;SDS011;9641;51.494;6.670;2024-03-06T05:22:57;52.07;;;22.53;;
19016;SDS011;9641;51.494;6.670;2024-03-06T05:25:24;46.30;;;22.70;;
19016;SDS011;9641;51.494;6.670;2024-03-06T05:27:51;49.13;;;22.83;;
19016;SDS011;9641;51.494;6.670;2024-03-06T05:30:20;55.00;;;24.30;;
19016;SDS011;9641;51.494;6.670;2024-03-06T05:32:47;56.83;;;24.70;;
19016;SDS011;9641;51.494;6.670;2024-03-06T05:35:14;51.73;;;24.60;;
19016;SDS011;9641;51.494;6.670;2024-03-06T05:37:42;49.57;;;22.63;;
19016;SDS011;9641;51.494;6.670;2024-03-06T05:40:10;54.57;;;25.07;;
19016;SDS011;9641;51.494;6.670;2024-03-06T05:42:38;56.37;;;24.63;;
19016;SDS011;9641;51.494;6.670;2024-03-06T05:45:05;54.53;;;24.07;;
19016;SDS011;9641;51.494;6.670;2024-03-06T05:47:37;58.33;;;26.40;;
19016;SDS011;9641;51.494;6.670;2024-03-06T05:50:04;64.00;;;27.33;;
19016;SDS011;9641;51.494;6.670;2024-03-06T05:52:33;69.40;;;29.53;;
19016;SDS011;9641;51.494;6.670;2024-03-06T05:55:00;56.43;;;26.33;;
19016;SDS011;9641;51.494;6.670;2024-03-06T05:57:31;53.63;;;25.80;;
19016;SDS011;9641;51.494;6.670;2024-03-06T05:59:58;56.33;;;26.47;;
19016;SDS011;9641;51.494;6.670;2024-03-06T06:02:40;57.70;;;24.67;;
19016;SDS011;9641;51.494;6.670;2024-03-06T06:05:10;61.63;;;27.13;;
19016;SDS011;9641;51.494;6.670;2024-03-06T06:07:37;57.40;;;26.67;;
19016;SDS011;9641;51.494;6.670;2024-03-06T06:10:04;61.13;;;26.73;;
19016;SDS011;9641;51.494;6.670;2024-03-06T06:12:35;63.27;;;26.13;;
19016;SDS011;9641;51.494;6.670;2024-03-06T06:15:02;53.90;;;24.97;;
19016;SDS011;9641;51.494;6.670;2024-03-06T06:17:32;55.10;;;24.50;;
19016;SDS011;9641;51.494;6.670;2024-03-06T06:20:02;55.43;;;25.17;;
19016;SDS011;9641;51.494;6.670;2024-03-06T06:22:34;63.53;;;27.97;;
19016;SDS011;9641;51.494;6.670;2024-03-06T06:25:02;70.63;;;27.07;;
19016;SDS011;9641;51.494;6.670;2024-03-06T06:27:32;72.70;;;26.33;;
19016;SDS011;9641;51.494;6.670;2024-03-06T06:29:59;64.87;;;27.23;;
19016;SDS011;9641;51.494;6.670;2024-03-06T06:32:28;64.60;;;26.93;;
19016;SDS011;9641;51.494;6.670;2024-03-06T06:34:58;58.27;;;25.93;;
19016;SDS011;9641;51.494;6.670;2024-03-06T06:37:28;61.43;;;26.03;;
19016;SDS011;9641;51.494;6.670;2024-03-06T06:39:56;63.10;;;26.20;;
19016;SDS011;9641;51.494;6.670;2024-03-06T06:42:26;65.00;;;28.17;;
19016;SDS011;9641;51.494;6.670;2024-03-06T06:44:54;64.97;;;25.83;;
19016;SDS011;9641;51.494;6.670;2024-03-06T06:47:21;67.87;;;27.33;;
19016;SDS011;9641;51.494;6.670;2024-03-06T06:49:54;67.07;;;27.57;;
19016;SDS011;9641;51.494;6.670;2024-03-06T06:52:22;70.67;;;27.53;;
19016;SDS011;9641;51.494;6.670;2024-03-06T06:54:54;70.17;;;27.73;;
19016;SDS011;9641;51.494;6.670;2024-03-06T06:57:21;68.03;;;28.30;;
19016;SDS011;9641;51.494;6.670;2024-03-06T06:59:51;72.37;;;28.83;;
19016;SDS011;9641;51.494;6.670;2024-03-06T07:02:18;69.27;;;27.73;;
19016;SDS011;9641;51.494;6.670;2024-03-06T07:04:46;76.47;;;28.43;;
19016;SDS011;9641;51.494;6.670;2024-03-06T07:07:13;64.43;;;27.17;;
19016;SDS011;9641;51.494;6.670;2024-03-06T07:09:42;65.37;;;27.23;;
19016;SDS011;9641;51.494;6.670;2024-03-06T07:12:12;73.43;;;28.20;;
19016;SDS011;9641;51.494;6.670;2024-03-06T07:14:42;68.13;;;28.53;;
19016;SDS011;9641;51.494;6.670;2024-03-06T07:17:09;65.67;;;27.63;;
19016;SDS011;9641;51.494;6.670;2024-03-06T07:19:37;69.20;;;28.33;;
19016;SDS011;9641;51.494;6.670;2024-03-06T07:22:06;71.07;;;29.47;;
19016;SDS011;9641;51.494;6.670;2024-03-06T07:24:33;68.80;;;28.50;;
19016;SDS011;9641;51.494;6.670;2024-03-06T07:27:02;68.30;;;26.60;;
19016;SDS011;9641;51.494;6.670;2024-03-06T07:29:31;75.37;;;29.90;;
19016;SDS011;9641;51.494;6.670;2024-03-06T07:31:58;64.47;;;27.63;;
19016;SDS011;9641;51.494;6.670;2024-03-06T07:34:25;73.53;;;30.70;;
19016;SDS011;9641;51.494;6.670;2024-03-06T07:36:53;67.67;;;28.83;;
19016;SDS011;9641;51.494;6.670;2024-03-06T07:39:20;81.30;;;30.03;;
19016;SDS011;9641;51.494;6.670;2024-03-06T07:41:49;82.13;;;32.03;;
19016;SDS011;9641;51.494;6.670;2024-03-06T07:44:18;67.57;;;29.67;;
19016;SDS011;9641;51.494;6.670;2024-03-06T07:46:48;95.83;;;38.80;;
19016;SDS011;9641;51.494;6.670;2024-03-06T07:49:16;77.90;;;33.30;;
19016;SDS011;9641;51.494;6.670;2024-03-06T07:51:44;75.27;;;32.57;;
19016;SDS011;9641;51.494;6.670;2024-03-06T07:54:11;77.17;;;32.00;;
19016;SDS011;9641;51.494;6.670;2024-03-06T07:56:38;71.30;;;30.80;;
19016;SDS011;9641;51.494;6.670;2024-03-06T07:59:05;75.40;;;29.43;;
19016;SDS011;9641;51.494;6.670;2024-03-06T08:01:32;71.33;;;30.73;;
19016;SDS011;9641;51.494;6.670;2024-03-06T08:04:00;78.83;;;32.50;;
19016;SDS011;9641;51.494;6.670;2024-03-06T08:06:28;83.27;;;34.10;;
19016;SDS011;9641;51.494;6.670;2024-03-06T08:08:58;81.97;;;34.67;;
19016;SDS011;9641;51.494;6.670;2024-03-06T08:11:27;81.07;;;32.67;;
19016;SDS011;9641;51.494;6.670;2024-03-06T08:13:56;79.97;;;33.77;;
19016;SDS011;9641;51.494;6.670;2024-03-06T08:16:24;78.10;;;33.47;;
19016;SDS011;9641;51.494;6.670;2024-03-06T08:18:55;72.43;;;30.57;;
19016;SDS011;9641;51.494;6.670;2024-03-06T08:21:25;70.00;;;32.13;;
19016;SDS011;9641;51.494;6.670;2024-03-06T08:23:52;65.57;;;32.00;;
19016;SDS011;9641;51.494;6.670;2024-03-06T08:26:19;63.17;;;29.93;;
19016;SDS011;9641;51.494;6.670;2024-03-06T08:28:46;65.30;;;31.37;;
19016;SDS011;9641;51.494;6.670;2024-03-06T08:31:14;76.50;;;34.00;;
19016;SDS011;9641;51.494;6.670;2024-03-06T08:33:41;76.53;;;33.60;;
19016;SDS011;9641;51.494;6.670;2024-03-06T08:36:09;66.40;;;31.80;;
19016;SDS011;9641;51.494;6.670;2024-03-06T08:38:38;72.13;;;33.00;;
19016;SDS011;9641;51.494;6.670;2024-03-06T08:41:07;67.20;;;32.27;;
19016;SDS011;9641;51.494;6.670;2024-03-06T08:43:34;71.83;;;34.13;;
19016;SDS011;9641;51.494;6.670;2024-03-06T08:46:05;71.13;;;34.00;;
19016;SDS011;9641;51.494;6.670;2024-03-06T08:48:32;69.03;;;33.47;;
19016;SDS011;9641;51.494;6.670;2024-03-06T08:50:59;59.87;;;33.70;;
19016;SDS011;9641;51.494;6.670;2024-03-06T08:53:28;67.20;;;33.33;;
19016;SDS011;9641;51.494;6.670;2024-03-06T08:55:57;69.67;;;34.03;;
19016;SDS011;9641;51.494;6.670;2024-03-06T08:58:24;60.73;;;33.10;;
19016;SDS011;9641;51.494;6.670;2024-03-06T09:00:52;60.67;;;32.67;;
19016;SDS011;9641;51.494;6.670;2024-03-06T09:03:19;59.03;;;32.53;;
19016;SDS011;9641;51.494;6.670;2024-03-06T09:05:46;51.60;;;30.50;;
19016;SDS011;9641;51.494;6.670;2024-03-06T09:08:13;55.87;;;30.50;;
19016;SDS011;9641;51.494;6.670;2024-03-06T09:10:43;52.47;;;30.60;;
19016;SDS011;9641;51.494;6.670;2024-03-06T09:13:12;48.67;;;28.13;;
19016;SDS011;9641;51.494;6.670;2024-03-06T09:15:39;46.97;;;29.00;;
19016;SDS011;9641;51.494;6.670;2024-03-06T09:18:06;46.97;;;27.57;;
19016;SDS011;9641;51.494;6.670;2024-03-06T09:20:33;41.10;;;26.50;;
19016;SDS011;9641;51.494;6.670;2024-03-06T09:23:00;43.13;;;26.40;;
19016;SDS011;9641;51.494;6.670;2024-03-06T09:25:28;39.83;;;24.93;;
19016;SDS011;9641;51.494;6.670;2024-03-06T09:27:55;34.60;;;24.20;;
19016;SDS011;9641;51.494;6.670;2024-03-06T09:30:23;33.97;;;23.97;;
19016;SDS011;9641;51.494;6.670;2024-03-06T09:32:53;32.33;;;23.30;;
19016;SDS011;9641;51.494;6.670;2024-03-06T09:35:20;31.57;;;21.73;;
19016;SDS011;9641;51.494;6.670;2024-03-06T09:37:48;35.67;;;22.00;;
19016;SDS011;9641;51.494;6.670;2024-03-06T09:40:22;31.40;;;21.83;;
19016;SDS011;9641;51.494;6.670;2024-03-06T09:42:51;34.77;;;21.47;;
19016;SDS011;9641;51.494;6.670;2024-03-06T09:45:18;33.33;;;21.83;;
19016;SDS011;9641;51.494;6.670;2024-03-06T09:47:50;31.30;;;21.17;;
19016;SDS011;9641;51.494;6.670;2024-03-06T09:50:18;33.10;;;20.50;;
19016;SDS011;9641;51.494;6.670;2024-03-06T09:52:50;33.90;;;20.90;;
19016;SDS011;9641;51.494;6.670;2024-03-06T09:55:19;30.83;;;21.17;;
19016;SDS011;9641;51.494;6.670;2024-03-06T09:57:46;30.00;;;19.20;;
19016;SDS011;9641;51.494;6.670;2024-03-06T10:00:15;27.30;;;18.30;;
19016;SDS011;9641;51.494;6.670;2024-03-06T10:02:46;28.63;;;18.27;;
19016;SDS011;9641;51.494;6.670;2024-03-06T10:05:21;27.90;;;19.40;;
19016;SDS011;9641;51.494;6.670;2024-03-06T10:07:49;31.33;;;20.20;;
19016;SDS011;9641;51.494;6.670;2024-03-06T10:10:19;28.77;;;18.77;;
19016;SDS011;9641;51.494;6.670;2024-03-06T10:12:47;26.33;;;19.40;;
19016;SDS011;9641;51.494;6.670;2024-03-06T10:15:17;27.57;;;19.37;;
19016;SDS011;9641;51.494;6.670;2024-03-06T10:17:46;32.20;;;20.50;;
19016;SDS011;9641;51.494;6.670;2024-03-06T10:20:19;34.87;;;21.30;;
19016;SDS011;9641;51.494;6.670;2024-03-06T10:22:48;34.57;;;20.10;;
19016;SDS011;9641;51.494;6.670;2024-03-06T10:25:18;37.43;;;22.90;;
19016;SDS011;9641;51.494;6.670;2024-03-06T10:27:46;37.60;;;22.00;;
19016;SDS011;9641;51.494;6.670;2024-03-06T10:30:13;39.27;;;23.70;;
19016;SDS011;9641;51.494;6.670;2024-03-06T10:32:41;39.20;;;24.67;;
19016;SDS011;9641;51.494;6.670;2024-03-06T10:35:17;47.43;;;26.47;;
19016;SDS011;9641;51.494;6.670;2024-03-06T10:37:46;38.63;;;25.67;;
19016;SDS011;9641;51.494;6.670;2024-03-06T10:40:14;43.37;;;26.40;;
19016;SDS011;9641;51.494;6.670;2024-03-06T10:42:44;43.03;;;25.73;;
19016;SDS011;9641;51.494;6.670;2024-03-06T10:45:13;42.80;;;25.83;;
19016;SDS011;9641;51.494;6.670;2024-03-06T10:47:45;46.40;;;25.80;;
19016;SDS011;9641;51.494;6.670;2024-03-06T10:50:14;52.17;;;29.37;;
19016;SDS011;9641;51.494;6.670;2024-03-06T10:52:43;47.83;;;29.00;;
19016;SDS011;9641;51.494;6.670;2024-03-06T10:55:13;45.67;;;27.27;;
19016;SDS011;9641;51.494;6.670;2024-03-06T10:57:42;40.00;;;23.57;;
19016;SDS011;9641;51.494;6.670;2024-03-06T11:00:10;42.67;;;23.37;;
19016;SDS011;9641;51.494;6.670;2024-03-06T11:02:45;39.13;;;22.90;;
19016;SDS011;9641;51.494;6.670;2024-03-06T11:05:14;47.67;;;24.47;;
19016;SDS011;9641;51.494;6.670;2024-03-06T11:07:43;42.27;;;24.50;;
19016;SDS011;9641;51.494;6.670;2024-03-06T11:10:11;46.60;;;25.63;;
19016;SDS011;9641;51.494;6.670;2024-03-06T11:12:41;42.87;;;25.07;;
19016;SDS011;9641;51.494;6.670;2024-03-06T11:15:13;44.93;;;27.77;;
19016;SDS011;9641;51.494;6.670;2024-03-06T11:17:42;44.70;;;28.80;;
19016;SDS011;9641;51.494;6.670;2024-03-06T11:20:13;54.43;;;30.03;;
19016;SDS011;9641;51.494;6.670;2024-03-06T11:23:03;48.63;;;29.27;;
19016;SDS011;9641;51.494;6.670;2024-03-06T11:28:23;46.87;;;27.63;;
19016;SDS011;9641;51.494;6.670;2024-03-06T11:30:55;53.95;;;28.00;;
19016;SDS011;9641;51.494;6.670;2024-03-06T11:33:24;48.40;;;28.08;;
19016;SDS011;9641;51.494;6.670;2024-03-06T11:38:43;42.33;;;26.42;;
19016;SDS011;9641;51.494;6.670;2024-03-06T11:41:16;40.45;;;24.85;;
19016;SDS011;9641;51.494;6.670;2024-03-06T11:43:43;41.67;;;24.63;;
19016;SDS011;9641;51.494;6.670;2024-03-06T11:46:11;40.63;;;25.40;;
19016;SDS011;9641;51.494;6.670;2024-03-06T11:48:37;39.03;;;26.05;;
19016;SDS011;9641;51.494;6.670;2024-03-06T11:51:05;41.20;;;26.40;;
19016;SDS011;9641;51.494;6.670;2024-03-06T11:53:32;47.25;;;29.50;;
19016;SDS011;9641;51.494;6.670;2024-03-06T11:56:05;50.53;;;32.80;;
19016;SDS011;9641;51.494;6.670;2024-03-06T11:58:33;57.05;;;34.28;;
19016;SDS011;9641;51.494;6.670;2024-03-06T12:01:00;60.23;;;32.67;;
19016;SDS011;9641;51.494;6.670;2024-03-06T12:03:27;55.43;;;32.80;;
19016;SDS011;9641;51.494;6.670;2024-03-06T12:05:54;58.03;;;33.23;;
19016;SDS011;9641;51.494;6.670;2024-03-06T12:08:22;54.70;;;32.50;;
19016;SDS011;9641;51.494;6.670;2024-03-06T12:10:49;52.87;;;29.40;;
19016;SDS011;9641;51.494;6.670;2024-03-06T12:13:18;49.47;;;28.88;;
19016;SDS011;9641;51.494;6.670;2024-03-06T12:15:46;46.05;;;26.90;;
19016;SDS011;9641;51.494;6.670;2024-03-06T12:18:16;44.55;;;26.60;;
19016;SDS011;9641;51.494;6.670;2024-03-06T12:20:46;45.53;;;28.43;;
19016;SDS011;9641;51.494;6.670;2024-03-06T12:23:20;45.00;;;28.27;;
19016;SDS011;9641;51.494;6.670;2024-03-06T12:25:48;45.83;;;28.23;;
19016;SDS011;9641;51.494;6.670;2024-03-06T12:28:16;46.97;;;25.77;;
19016;SDS011;9641;51.494;6.670;2024-03-06T12:30:52;49.97;;;27.77;;
19016;SDS011;9641;51.494;6.670;2024-03-06T12:33:19;49.37;;;27.23;;
19016;SDS011;9641;51.494;6.670;2024-03-06T12:35:46;44.47;;;26.60;;
19016;SDS011;9641;51.494;6.670;2024-03-06T12:38:24;51.97;;;27.23;;
19016;SDS011;9641;51.494;6.670;2024-03-06T12:40:55;52.57;;;28.97;;
19016;SDS011;9641;51.494;6.670;2024-03-06T12:43:23;56.20;;;29.70;;
19016;SDS011;9641;51.494;6.670;2024-03-06T12:45:54;52.80;;;30.50;;
19016;SDS011;9641;51.494;6.670;2024-03-06T12:48:22;51.23;;;29.63;;
19016;SDS011;9641;51.494;6.670;2024-03-06T12:50:51;49.07;;;28.10;;
19016;SDS011;9641;51.494;6.670;2024-03-06T12:53:20;46.57;;;28.73;;
19016;SDS011;9641;51.494;6.670;2024-03-06T12:55:51;51.17;;;27.87;;
19016;SDS011;9641;51.494;6.670;2024-03-06T12:58:19;49.47;;;27.93;;
19016;SDS011;9641;51.494;6.670;2024-03-06T13:00:46;46.40;;;26.70;;
19016;SDS011;9641;51.494;6.670;2024-03-06T13:03:15;47.67;;;24.27;;
19016;SDS011;9641;51.494;6.670;2024-03-06T13:05:45;42.17;;;25.67;;
19016;SDS011;9641;51.494;6.670;2024-03-06T13:08:18;44.60;;;28.00;;
19016;SDS011;9641;51.494;6.670;2024-03-06T13:10:46;40.30;;;25.27;;
19016;SDS011;9641;51.494;6.670;2024-03-06T13:13:14;40.93;;;23.53;;
19016;SDS011;9641;51.494;6.670;2024-03-06T13:15:41;36.57;;;22.87;;
19016;SDS011;9641;51.494;6.670;2024-03-06T13:18:08;30.63;;;18.70;;
19016;SDS011;9641;51.494;6.670;2024-03-06T13:20:37;28.17;;;18.37;;
19016;SDS011;9641;51.494;6.670;2024-03-06T13:23:05;29.40;;;18.40;;
19016;SDS011;9641;51.494;6.670;2024-03-06T13:25:32;30.27;;;19.73;;
19016;SDS011;9641;51.494;6.670;2024-03-06T13:28:03;27.00;;;17.27;;
19016;SDS011;9641;51.494;6.670;2024-03-06T13:30:30;28.27;;;19.23;;
19016;SDS011;9641;51.494;6.670;2024-03-06T13:32:58;27.17;;;18.13;;
19016;SDS011;9641;51.494;6.670;2024-03-06T13:35:25;31.07;;;19.20;;
19016;SDS011;9641;51.494;6.670;2024-03-06T13:37:55;29.90;;;17.47;;
19016;SDS011;9641;51.494;6.670;2024-03-06T13:40:23;26.10;;;16.37;;
19016;SDS011;9641;51.494;6.670;2024-03-06T13:42:54;28.57;;;17.73;;
19016;SDS011;9641;51.494;6.670;2024-03-06T13:45:21;28.03;;;17.00;;
19016;SDS011;9641;51.494;6.670;2024-03-06T13:47:48;29.80;;;17.40;;
19016;SDS011;9641;51.494;6.670;2024-03-06T13:50:17;29.33;;;18.00;;
19016;SDS011;9641;51.494;6.670;2024-03-06T13:52:47;24.60;;;16.73;;
19016;SDS011;9641;51.494;6.670;2024-03-06T13:55:17;24.20;;;15.90;;
19016;SDS011;9641;51.494;6.670;2024-03-06T13:57:58;23.65;;;15.43;;
19016;SDS011;9641;51.494;6.670;2024-03-06T14:00:33;25.38;;;15.00;;
19016;SDS011;9641;51.494;6.670;2024-03-06T14:03:03;25.17;;;15.77;;
19016;SDS011;9641;51.494;6.670;2024-03-06T14:05:33;23.83;;;15.55;;
19016;SDS011;9641;51.494;6.670;2024-03-06T14:08:08;25.75;;;16.80;;
19016;SDS011;9641;51.494;6.670;2024-03-06T14:10:38;24.67;;;16.73;;
19016;SDS011;9641;51.494;6.670;2024-03-06T14:13:06;28.02;;;19.27;;
19016;SDS011;9641;51.494;6.670;2024-03-06T14:15:35;30.20;;;19.23;;
19016;SDS011;9641;51.494;6.670;2024-03-06T14:18:06;25.48;;;17.52;;
19016;SDS011;9641;51.494;6.670;2024-03-06T14:20:34;31.40;;;18.02;;
19016;SDS011;9641;51.494;6.670;2024-03-06T14:23:06;25.40;;;16.40;;
19016;SDS011;9641;51.494;6.670;2024-03-06T14:25:39;26.88;;;18.92;;
19016;SDS011;9641;51.494;6.670;2024-03-06T14:28:06;24.73;;;16.85;;
19016;SDS011;9641;51.494;6.670;2024-03-06T14:30:33;25.23;;;15.75;;
19016;SDS011;9641;51.494;6.670;2024-03-06T14:33:04;29.58;;;17.88;;
19016;SDS011;9641;51.494;6.670;2024-03-06T14:35:31;24.83;;;17.30;;
19016;SDS011;9641;51.494;6.670;2024-03-06T14:38:02;25.27;;;17.00;;
19016;SDS011;9641;51.494;6.670;2024-03-06T14:40:32;21.08;;;15.32;;
19016;SDS011;9641;51.494;6.670;2024-03-06T14:43:11;21.73;;;14.65;;
19016;SDS011;9641;51.494;6.670;2024-03-06T14:45:38;21.90;;;13.93;;